Airfield :







YOU CAN JOIN US ON...

 
LOGIN :

Register | Disclaimer

   EN    FR    IT 

 









Legend :    VFR   Marginal VFR   IFR   Intensive IFR   Very Intensive IFR
Visi :
Ceiling :
>= 8 km
>= 3000ft
5 to 8 km
1000 to 3000 ft
1500m to 5 km
500 to 1000 ft
800 to 1500m
200 to 500 ft
< 800m
< 200 ft
Symbols :   Thunderstorms  Fog  Heavy snow  Heavy precipitations  Wind > 20 kt







- Airport Elevation : 103 ft
- IATA code : YQC


CYHA - Quaqtaq

CURRENT METAR :
  • 201800Z 29019G26KT 15SM BKN044 08/02 A2956 RMK SC5 SLP013

EXPIRED METARs :
  • 201700Z 29017G25KT 15SM BKN034 08/02 A2954 RMK SC6 SLP007
  • 201600Z 28022G35KT 15SM BKN036 BKN073 07/01 A2952 RMK SC6AC1 AC TR SLP999
  • 201500Z 28018G27KT 15SM SCT034 BKN073 07/02 A2950 RMK SC5AC1 SLP992

TAF TAF CYHA
Valid from the 20 at 14:00 until the 20 at 21:00 UTC


201338Z 2014/2021 28015G25KT P6SM SCT015 BKN030
TEMPO 2014/2021 BKN015
BECMG 2014/2016 28025G40KT RMK NXT FCST WILL BE ISSUED AT 211345Z
No reported NOTAMs for that airfield.



MET'MAP, your aeronautical weather chart ! - Copyright ORBIFLY December 2007 - Disclaimer

ORBIFLY MET'MAP TEAM :

Programming & Development : Alexandra Zaïnal
Concept & Development : Baudouin d'Aumeries
Co-Development & Prog : Marc-Olivier Méhu
Technical & hardware support : Manuel Goepfert

Contact : metmap@orbifly.com




SOURCES & CREDITS :

   NOAA